Historique des mesures à Cassis (13260), France
Quotidien Résumé Fevrier 22, 2017 Unités:  Métrique    US   Métrique/US
« Précédent (Jour)
Suivant (Jour) »
Quotidien Hebdomadaire Mensuel Annuel Période au choix
  Maximum: Minimum: Moyenne:
Température: TemperatureC °C 8.4 °C 11.8 °C
Point de rosée: DewpointC °C 5.3 °C 7.2 °C
Humidité: Humidity % 61 % 70 %
Vitesse du vent: 0 km/h 0 km/h 1.4 km/h
Rafales: 0 km/h - -
Vent:- - SE
Pression: PressurehPa hPa 1014.8 hPa -
Précipitations: 0.0 mm    
Historical Graphs
 
 
Mesures pour : Fevrier 22, 2017
Heure Temperature Point de rosée Pression Vent Vitesse du vent Rafales Humidité Pluie (par heure) Conditions
TemperatureC °C DewpointC °C PressurehPa hPa Calm     Humidity % HourlyPrecipMM mm SoftwareType W/m2
00:10 11.6 °C 6.9 °C 1016.5 hPa Calm     73 % 0.0 mm open2300-1.11 W/m2
01:11 10.9 °C 6.3 °C 1016.8 hPa Calm     73 % 0.0 mm open2300-1.11 W/m2
02:10 10.2 °C 5.8 °C 1016.8 hPa Calm     74 % 0.0 mm open2300-1.11 W/m2
03:11 9.8 °C 6.1 °C 1016.5 hPa Calm     78 % 0.0 mm open2300-1.11 W/m2
04:10 9.5 °C 6.0 °C 1015.8 hPa Calm     79 % 0.0 mm open2300-1.11 W/m2
05:11 9.2 °C 6.1 °C 1016.5 hPa Calm     81 % 0.0 mm open2300-1.11 W/m2
06:10 8.9 °C 5.8 °C 1016.1 hPa Calm     81 % 0.0 mm open2300-1.11 W/m2
07:11 8.4 °C 5.3 °C 1016.5 hPa Calm     81 % 0.0 mm open2300-1.11 W/m2
08:10 9.2 °C 6.1 °C 1016.5 hPa Calm     81 % 0.0 mm open2300-1.11 W/m2
09:11 10.8 °C 7.5 °C 1016.8 hPa Calm     80 % 0.0 mm open2300-1.11 W/m2
10:10 12.2 °C 8.1 °C 1016.8 hPa East 8.9 km/h 8.9 km/h 76 % 0.0 mm open2300-1.11 W/m2
11:11 13.9 °C 8.9 °C 1016.8 hPa Calm     72 % 0.0 mm open2300-1.11 W/m2
12:10 15.1 °C 9.9 °C 1016.8 hPa Calm     71 % 0.0 mm open2300-1.11 W/m2
13:11 15.5 °C 10.1 °C 1016.5 hPa South 5.6 km/h 5.6 km/h 70 % 0.0 mm open2300-1.11 W/m2
14:10 15.7 °C 10.1 °C 1015.8 hPa West 2.9 km/h 4.7 km/h 69 % 0.0 mm open2300-1.11 W/m2
15:11 15.9 °C 10.1 °C 1015.1 hPa SE 10.3 km/h 10.3 km/h 68 % 0.0 mm open2300-1.11 W/m2
16:10 15.9 °C 10.5 °C 1015.1 hPa Calm   6.4 km/h 70 % 0.0 mm open2300-1.11 W/m2
17:11 16.1 °C 8.8 °C 1014.8 hPa North 8 km/h 12.2 km/h 62 % 0.0 mm open2300-1.11 W/m2
18:10 14.9 °C 7.4 °C 1015.1 hPa Calm   9.3 km/h 61 % 0.0 mm open2300-1.11 W/m2
19:11 13.8 °C 7.5 °C 1015.5 hPa Calm     66 % 0.0 mm open2300-1.11 W/m2
20:10 12.7 °C 6.9 °C 1015.8 hPa Calm     68 % 0.0 mm open2300-1.11 W/m2
21:11 11.8 °C 6.5 °C 1015.8 hPa Calm     70 % 0.0 mm open2300-1.11 W/m2
22:10 11.2 °C 6.7 °C 1015.5 hPa Calm     74 % 0.0 mm open2300-1.11 W/m2
23:11 10.8 °C 6.9 °C 1015.5 hPa Calm     77 % 0.0 mm open2300-1.11 W/m2
Observations météo à CASSIS
WU-History script by Weather Underground - 1 mb